Time;durP1;ratioP1;P1;durP2;ratioP2;P2;SDS_P1;SDS_P2;PMS_P1;PMS_P2;Temp;Humidity;BMP_temperature;BMP_pressure;BME280_temperature;BME280_humidity;BME280_pressure;Samples;Min_cycle;Max_cycle;Signal;HPM_P1;HPM_P2
2022/08/15 00:02:06;;;;;;;5.40;3.30;;;;;;;25.03;39.21;98575.16;25015;1316;3026302;-55
2022/08/15 00:04:35;;;;;;;7.70;3.60;;;;;;;25.03;38.93;98578.54;25072;1317;3054210;-57
2022/08/15 00:07:06;;;;;;;6.80;3.50;;;;;;;25.04;38.87;98581.77;25025;1316;3026907;-57
2022/08/15 00:09:35;;;;;;;4.90;3.70;;;;;;;25.02;39.08;98583.02;25052;1318;3026401;-56
2022/08/15 00:12:04;;;;;;;7.60;3.00;;;;;;;24.99;39.19;98578.04;25042;1316;3026321;-56
2022/08/15 00:14:34;;;;;;;7.70;3.60;;;;;;;24.96;38.97;98577.43;25017;1317;3051416;-54
2022/08/15 00:17:09;;;;;;;8.50;3.70;;;;;;;24.90;39.13;98571.41;25055;1317;3027245;-56
2022/08/15 00:19:41;;;;;;;7.00;3.60;;;;;;;24.87;39.37;98573.09;25050;1316;3052039;-56
2022/08/15 00:22:10;;;;;;;9.00;3.40;;;;;;;24.87;39.33;98577.64;25056;1317;3026619;-57
2022/08/15 00:24:39;;;;;;;7.40;3.60;;;;;;;24.84;39.35;98571.36;24984;1319;3026928;-56
2022/08/15 00:27:08;;;;;;;5.90;3.30;;;;;;;24.81;39.45;98571.45;25017;1316;3049504;-57
2022/08/15 00:29:37;;;;;;;13.20;4.10;;;;;;;24.79;39.36;98569.05;25049;1317;3026552;-58
2022/08/15 00:32:13;;;;;;;6.10;3.70;;;;;;;24.79;39.43;98565.67;25012;1316;3056739;-57
2022/08/15 00:34:42;;;;;;;6.00;3.20;;;;;;;24.75;39.73;98568.27;25043;1317;3048916;-56
2022/08/15 00:37:12;;;;;;;7.10;4.20;;;;;;;24.72;39.66;98564.96;25063;1316;3026925;-57
2022/08/15 00:39:41;;;;;;;7.80;4.40;;;;;;;24.69;39.78;98560.71;25039;1317;3027856;-56
2022/08/15 00:42:11;;;;;;;5.80;3.70;;;;;;;24.67;39.71;98557.20;25023;1317;3026270;-58
2022/08/15 00:44:44;;;;;;;6.70;3.80;;;;;;;24.64;39.78;98554.89;25000;1317;3055862;-57
2022/08/15 00:47:15;;;;;;;9.20;3.80;;;;;;;24.66;39.80;98555.50;25047;1316;3026510;-57
2022/08/15 00:49:45;;;;;;;7.50;3.90;;;;;;;24.62;39.74;98549.59;25025;1317;3026790;-57
2022/08/15 00:52:23;;;;;;;6.90;4.30;;;;;;;24.59;39.81;98550.68;25067;1317;3026454;-57
2022/08/15 00:55:00;;;;;;;10.90;4.60;;;;;;;24.58;40.10;98547.30;25053;1317;3051895;-58
2022/08/15 00:57:34;;;;;;;6.60;3.90;;;;;;;24.58;40.02;98548.27;25036;1317;3055267;-58
2022/08/15 01:00:14;;;;;;;7.80;3.70;;;;;;;24.59;39.92;98548.09;25072;1317;3057424;-57
2022/08/15 01:02:42;;;;;;;11.20;3.70;;;;;;;24.54;40.02;98546.92;25020;1317;3051583;-56
2022/08/15 01:05:12;;;;;;;8.50;3.60;;;;;;;24.51;40.14;98547.83;25049;1316;3026640;-55
2022/08/15 01:07:43;;;;;;;6.60;3.80;;;;;;;24.53;40.14;98545.40;25051;1317;3056132;-55
2022/08/15 01:10:12;;;;;;;7.10;3.60;;;;;;;24.54;40.07;98546.02;25029;1317;3026619;-56
2022/08/15 01:12:43;;;;;;;7.00;4.00;;;;;;;24.51;40.17;98540.72;25043;1317;3026587;-56
2022/08/15 01:15:14;;;;;;;5.60;3.30;;;;;;;24.51;40.18;98545.52;24948;1318;3027687;-57
2022/08/15 01:17:44;;;;;;;5.40;3.70;;;;;;;24.50;40.29;98548.04;25064;1318;3026453;-54
2022/08/15 01:20:21;;;;;;;8.40;4.40;;;;;;;24.43;40.46;98543.70;25016;1318;3026809;-56
2022/08/15 01:23:06;;;;;;;4.30;3.20;;;;;;;24.43;40.38;98546.17;25027;1317;3053150;-54
2022/08/15 01:25:43;;;;;;;11.60;4.20;;;;;;;24.42;40.81;98547.58;25034;1317;3055500;-57
2022/08/15 01:28:39;;;;;;;8.50;3.60;;;;;;;24.42;40.41;98548.81;25043;1317;3056429;-54
2022/08/15 01:31:11;;;;;;;6.70;3.70;;;;;;;24.41;40.38;98545.42;25009;1318;3052407;-57
2022/08/15 01:33:43;;;;;;;6.90;3.70;;;;;;;24.41;40.45;98548.02;25027;1318;3027877;-56
2022/08/15 01:36:13;;;;;;;7.80;4.40;;;;;;;24.40;40.37;98543.73;25069;1316;3030007;-55
2022/08/15 01:38:47;;;;;;;9.90;3.60;;;;;;;24.37;40.48;98547.25;25049;1317;3027654;-55
2022/08/15 01:41:35;;;;;;;10.60;4.50;;;;;;;24.39;40.18;98544.84;25020;1317;3051661;-57
2022/08/15 01:44:26;;;;;;;7.10;3.60;;;;;;;24.38;40.21;98541.02;25000;1317;3053127;-56
2022/08/15 01:47:04;;;;;;;5.20;3.10;;;;;;;24.37;40.37;98544.27;25046;1317;3055212;-55
2022/08/15 01:49:39;;;;;;;6.90;3.50;;;;;;;24.39;40.30;98545.19;24929;1317;3055632;-56
2022/08/15 01:52:08;;;;;;;5.40;3.00;;;;;;;24.37;40.23;98547.77;24972;1317;3052896;-57
2022/08/15 01:54:44;;;;;;;9.80;3.90;;;;;;;24.39;40.24;98549.02;25052;1317;3026315;-56
2022/08/15 01:57:13;;;;;;;5.20;3.50;;;;;;;24.40;40.33;98548.95;25023;1317;3054010;-57
2022/08/15 01:59:42;;;;;;;8.20;4.60;;;;;;;24.38;40.48;98550.26;25013;1317;3026604;-56
2022/08/15 02:02:11;;;;;;;6.90;3.40;;;;;;;24.36;40.75;98551.83;25093;1316;3055017;-56
2022/08/15 02:04:41;;;;;;;7.20;3.80;;;;;;;24.38;40.52;98556.86;25029;1318;3026863;-56
2022/08/15 02:07:17;;;;;;;6.00;3.40;;;;;;;24.38;40.43;98544.36;25092;1316;3048551;-56
2022/08/15 02:09:46;;;;;;;10.70;3.60;;;;;;;24.34;40.29;98545.59;25002;1317;3053001;-56
2022/08/15 02:12:19;;;;;;;6.20;3.60;;;;;;;24.30;40.37;98548.22;25073;1317;3027203;-57
2022/08/15 02:14:49;;;;;;;4.90;3.40;;;;;;;24.33;40.27;98551.16;25005;1317;3026504;-56
2022/08/15 02:17:18;;;;;;;5.30;3.30;;;;;;;24.32;40.17;98549.46;24972;1317;3026804;-57
2022/08/15 02:19:48;;;;;;;5.00;3.60;;;;;;;24.30;40.26;98550.82;25030;1318;3053690;-58
2022/08/15 02:22:21;;;;;;;5.20;3.50;;;;;;;24.26;40.36;98546.80;25008;1317;3026331;-56
2022/08/15 02:24:50;;;;;;;5.20;3.60;;;;;;;24.24;40.43;98546.85;25049;1318;3026795;-55
2022/08/15 02:27:19;;;;;;;5.90;3.20;;;;;;;24.24;40.40;98547.72;25065;1317;3027438;-56
2022/08/15 02:29:49;;;;;;;6.70;3.50;;;;;;;24.23;40.49;98545.70;25011;1316;3028674;-55
2022/08/15 02:32:18;;;;;;;6.90;3.50;;;;;;;24.22;40.47;98549.00;25046;1317;3052066;-56
2022/08/15 02:34:47;;;;;;;8.50;3.90;;;;;;;24.22;40.54;98550.60;25043;1317;3027826;-58
2022/08/15 02:37:18;;;;;;;8.70;3.30;;;;;;;24.21;40.51;98555.89;25030;1316;3071907;-57
2022/08/15 02:39:49;;;;;;;7.20;3.40;;;;;;;24.21;40.53;98550.85;25074;1316;3026714;-54
2022/08/15 02:42:19;;;;;;;5.30;3.60;;;;;;;24.22;40.48;98547.77;24980;1317;3027108;-57
2022/08/15 02:44:49;;;;;;;9.40;3.90;;;;;;;24.24;40.45;98548.55;24939;1316;3026689;-57
2022/08/15 02:47:19;;;;;;;5.00;3.30;;;;;;;24.24;40.43;98550.69;25034;1317;3028343;-57
2022/08/15 02:49:49;;;;;;;9.70;3.60;;;;;;;24.24;40.56;98551.44;25009;1316;3026934;-56
2022/08/15 02:52:18;;;;;;;9.10;3.70;;;;;;;24.23;40.52;98560.27;25003;1316;3027484;-57
2022/08/15 02:54:49;;;;;;;5.40;3.40;;;;;;;24.24;40.48;98558.75;25083;1317;3029811;-56
2022/08/15 02:57:18;;;;;;;11.80;3.60;;;;;;;24.25;40.42;98560.19;25010;1316;3026739;-56
2022/08/15 02:59:47;;;;;;;8.20;3.70;;;;;;;24.25;40.44;98557.84;25030;1317;3027416;-56
2022/08/15 03:02:22;;;;;;;6.90;3.40;;;;;;;24.26;40.50;98560.80;24979;1317;3055249;-56
2022/08/15 03:04:51;;;;;;;7.10;3.40;;;;;;;24.26;40.60;98564.68;25049;1317;3026960;-56
2022/08/15 03:07:21;;;;;;;6.60;4.10;;;;;;;24.29;40.38;98565.44;25041;1317;3026749;-58
2022/08/15 03:09:50;;;;;;;7.40;3.60;;;;;;;24.32;40.43;98566.47;24954;1317;3026676;-56
2022/08/15 03:12:23;;;;;;;4.20;3.00;;;;;;;24.31;40.41;98564.24;24967;1317;3054449;-55
2022/08/15 03:14:56;;;;;;;6.80;3.60;;;;;;;24.31;40.35;98559.21;25036;1317;3026880;-58
2022/08/15 03:17:25;;;;;;;7.60;3.30;;;;;;;24.31;40.31;98561.06;24964;1317;3026733;-58
2022/08/15 03:19:54;;;;;;;8.30;3.40;;;;;;;24.33;40.33;98559.71;25060;1316;3029750;-57
2022/08/15 03:22:23;;;;;;;11.50;4.10;;;;;;;24.36;40.20;98560.33;25052;1317;3058284;-58
2022/08/15 03:24:53;;;;;;;6.90;3.60;;;;;;;24.38;40.18;98562.15;24981;1317;3026587;-57
2022/08/15 03:27:22;;;;;;;6.10;3.70;;;;;;;24.38;40.08;98566.08;24993;1317;3054993;-56
2022/08/15 03:29:51;;;;;;;6.70;3.50;;;;;;;24.38;40.25;98560.98;25022;1317;3029012;-54
2022/08/15 03:32:21;;;;;;;5.60;3.60;;;;;;;24.45;40.01;98562.02;25045;1317;3027236;-57
2022/08/15 03:34:50;;;;;;;7.00;3.10;;;;;;;24.48;40.05;98564.30;24964;1320;3026065;-56
2022/08/15 03:37:19;;;;;;;5.40;3.10;;;;;;;24.49;39.78;98565.63;25051;1317;3057193;-55
2022/08/15 03:39:49;;;;;;;4.30;3.30;;;;;;;24.52;39.63;98569.85;25027;1317;3029164;-55
2022/08/15 03:42:18;;;;;;;5.80;3.40;;;;;;;24.53;39.62;98567.24;25016;1317;3026804;-56
2022/08/15 03:44:48;;;;;;;5.90;3.60;;;;;;;24.55;39.47;98567.81;25061;1318;3058087;-57
2022/08/15 03:47:17;;;;;;;6.90;3.90;;;;;;;24.59;39.24;98568.35;24936;1317;3026908;-55
2022/08/15 03:49:46;;;;;;;6.40;3.60;;;;;;;24.66;39.05;98566.65;25016;1316;3055006;-57
2022/08/15 03:52:15;;;;;;;6.50;3.60;;;;;;;24.66;39.01;98564.92;25029;1317;3027569;-58
2022/08/15 03:54:45;;;;;;;5.10;3.50;;;;;;;24.67;39.05;98568.06;24988;1317;3053988;-56
2022/08/15 03:57:14;;;;;;;4.90;3.20;;;;;;;24.70;39.02;98570.76;24956;1319;3026224;-55
2022/08/15 03:59:43;;;;;;;7.50;3.30;;;;;;;24.73;38.85;98571.94;24991;1317;3051813;-55
2022/08/15 04:02:13;;;;;;;7.30;3.80;;;;;;;24.71;39.00;98571.30;24993;1317;3027254;-57
2022/08/15 04:04:42;;;;;;;7.80;3.40;;;;;;;24.73;39.09;98570.99;25030;1318;3026436;-56
2022/08/15 04:07:11;;;;;;;7.40;3.60;;;;;;;24.76;39.05;98573.55;25006;1317;3027349;-56
2022/08/15 04:09:43;;;;;;;5.60;3.50;;;;;;;24.75;39.13;98576.66;25096;1316;3053031;-55
2022/08/15 04:12:13;;;;;;;7.40;3.60;;;;;;;24.73;39.37;98574.68;25018;1318;3026780;-56
2022/08/15 04:14:42;;;;;;;6.80;3.20;;;;;;;24.73;39.57;98570.91;24976;1319;3026549;-54
2022/08/15 04:17:15;;;;;;;6.80;3.10;;;;;;;24.75;39.64;98567.56;25008;1316;3051984;-57
2022/08/15 04:19:45;;;;;;;7.30;2.90;;;;;;;24.77;39.54;98566.08;25000;1317;3029782;-55
2022/08/15 04:22:15;;;;;;;4.20;2.80;;;;;;;24.79;39.38;98561.16;25015;1318;3026634;-56
2022/08/15 04:24:44;;;;;;;10.50;3.40;;;;;;;24.83;39.55;98565.16;25002;1318;3026618;-57
2022/08/15 04:27:13;;;;;;;8.40;3.50;;;;;;;24.86;39.53;98563.92;25011;1317;3026192;-57
2022/08/15 04:29:42;;;;;;;12.00;3.50;;;;;;;24.89;40.04;98554.76;24912;1317;3058341;-58
2022/08/15 04:32:12;;;;;;;7.50;3.40;;;;;;;24.90;39.84;98555.16;25044;1316;3026984;-58
2022/08/15 04:34:42;;;;;;;9.40;3.60;;;;;;;24.93;39.52;98554.36;25002;1317;3026300;-56
2022/08/15 04:37:12;;;;;;;10.80;3.00;;;;;;;24.99;39.68;98553.21;25073;1316;3026392;-59
2022/08/15 04:39:41;;;;;;;8.90;3.40;;;;;;;25.03;39.59;98556.09;25038;1316;3028534;-55
2022/08/15 04:42:11;;;;;;;6.30;3.30;;;;;;;25.09;39.33;98555.59;25005;1318;3026766;-57
2022/08/15 04:44:40;;;;;;;6.70;3.50;;;;;;;25.16;39.27;98559.05;25020;1317;3028577;-57
2022/08/15 04:47:11;;;;;;;7.90;3.30;;;;;;;25.25;39.26;98556.67;25031;1320;3026749;-58
2022/08/15 04:49:40;;;;;;;4.90;2.80;;;;;;;25.31;38.80;98554.84;24998;1317;3026611;-57
2022/08/15 04:52:13;;;;;;;6.40;3.40;;;;;;;25.39;39.07;98552.98;24986;1317;3054596;-56
2022/08/15 04:54:43;;;;;;;7.90;3.10;;;;;;;25.50;38.79;98553.27;24966;1317;3026807;-56
2022/08/15 04:57:15;;;;;;;5.30;3.20;;;;;;;25.57;38.85;98560.58;25050;1317;3026756;-56
2022/08/15 04:59:44;;;;;;;9.60;3.50;;;;;;;25.58;39.15;98560.98;25059;1315;3027046;-56
2022/08/15 05:02:23;;;;;;;5.70;3.10;;;;;;;25.59;39.50;98560.16;25009;1316;3056564;-57
2022/08/15 05:04:52;;;;;;;;;;;;;;;25.60;39.55;98555.03;25046;1315;3053247;-57
2022/08/15 05:07:21;;;;;;;10.40;3.20;;;;;;;25.52;39.63;98562.25;25046;1317;3026663;-56
2022/08/15 05:09:50;;;;;;;8.00;3.60;;;;;;;25.50;39.52;98563.88;25014;1316;3052099;-57
2022/08/15 05:12:19;;;;;;;12.20;3.10;;;;;;;25.48;39.50;98562.34;25091;1318;3026607;-57
2022/08/15 05:14:49;;;;;;;8.40;3.40;;;;;;;25.50;39.58;98568.55;24955;1317;3048756;-57
2022/08/15 05:17:21;;;;;;;10.50;3.40;;;;;;;25.49;39.14;98568.39;25084;1316;3027780;-57
2022/08/15 05:19:50;;;;;;;12.40;3.40;;;;;;;25.49;38.93;98571.69;24942;1317;3027482;-58
2022/08/15 05:22:19;;;;;;;10.40;3.20;;;;;;;25.48;38.73;98570.08;25000;1317;3026878;-57
2022/08/15 05:24:48;;;;;;;14.40;3.40;;;;;;;25.45;38.91;98567.57;25061;1315;3053682;-58
2022/08/15 05:27:18;;;;;;;8.90;3.20;;;;;;;25.42;40.21;98560.45;25094;1316;3026748;-57
2022/08/15 05:29:48;;;;;;;9.30;3.80;;;;;;;25.38;41.02;98566.41;25080;1314;3051809;-57
2022/08/15 05:32:18;;;;;;;12.00;3.60;;;;;;;25.33;40.73;98572.14;25048;1315;3027170;-56
2022/08/15 05:34:47;;;;;;;9.70;3.10;;;;;;;25.35;40.91;98572.77;25111;1315;3056713;-57
2022/08/15 05:37:17;;;;;;;12.60;3.10;;;;;;;25.37;40.44;98576.35;25035;1316;3026340;-57
2022/08/15 05:39:47;;;;;;;8.00;3.40;;;;;;;25.41;39.41;98573.58;24978;1317;3053008;-57
2022/08/15 05:42:59;;;;;;;7.10;3.60;;;;;;;25.44;39.56;98574.31;25022;1318;3026850;-55
2022/08/15 05:45:37;;;;;;;8.90;3.50;;;;;;;25.50;39.42;98582.23;24840;1323;3051103;-57
2022/08/15 05:48:14;;;;;;;7.30;3.40;;;;;;;25.56;39.11;98571.09;24996;1316;3056082;-55
2022/08/15 05:51:14;;;;;;;11.90;3.30;;;;;;;25.64;38.95;98567.33;25033;1318;3053896;-58
2022/08/15 05:53:59;;;;;;;8.10;3.90;;;;;;;25.71;39.05;98576.50;24988;1318;3071704;-56
2022/08/15 05:56:58;;;;;;;10.60;4.00;;;;;;;25.71;38.66;98572.11;25074;1315;3049085;-56
2022/08/15 05:59:49;;;;;;;7.80;4.00;;;;;;;25.68;38.62;98570.34;25021;1317;3055415;-58
2022/08/15 06:02:24;;;;;;;11.50;3.70;;;;;;;25.72;38.09;98567.68;25106;1314;3052152;-57
2022/08/15 06:05:10;;;;;;;8.30;3.50;;;;;;;25.81;38.36;98567.77;24967;1316;3059453;-58
2022/08/15 06:07:42;;;;;;;7.70;3.20;;;;;;;25.92;38.02;98572.14;25030;1318;3050108;-56
2022/08/15 06:10:25;;;;;;;13.20;4.50;;;;;;;25.95;37.85;98567.65;24941;1320;3026656;-59
2022/08/15 06:13:03;;;;;;;11.00;3.70;;;;;;;26.02;37.65;98565.06;24961;1317;3052712;-57
2022/08/15 06:16:00;;;;;;;5.40;3.20;;;;;;;26.08;37.67;98573.54;24999;1315;3068480;-56
2022/08/15 06:18:30;;;;;;;12.40;3.30;;;;;;;26.06;38.13;98581.24;25026;1314;3052267;-58
2022/08/15 06:21:37;;;;;;;5.70;3.30;;;;;;;26.04;38.03;98579.96;24985;1314;3027125;-58
2022/08/15 06:24:17;;;;;;;12.10;4.20;;;;;;;26.04;38.06;98586.18;25019;1315;3055506;-56
2022/08/15 06:26:53;;;;;;;7.50;3.60;;;;;;;26.05;38.21;98589.74;24998;1318;3059565;-59
2022/08/15 06:29:44;;;;;;;13.10;3.90;;;;;;;26.10;38.33;98584.16;24966;1318;3051894;-59
2022/08/15 06:32:17;;;;;;;6.50;3.40;;;;;;;26.14;38.38;98593.25;25059;1316;3055742;-56
2022/08/15 06:35:03;;;;;;;7.90;3.90;;;;;;;26.20;38.30;98598.59;24987;1319;3026899;-58
2022/08/15 06:38:10;;;;;;;7.30;3.30;;;;;;;26.30;38.04;98597.25;25039;1316;3069405;-57
2022/08/15 06:40:55;;;;;;;8.30;3.40;;;;;;;26.43;37.61;98593.53;25099;1318;3049340;-56
2022/08/15 06:43:24;;;;;;;9.30;4.00;;;;;;;26.58;37.43;98591.61;25077;1317;3052147;-57
2022/08/15 06:46:16;;;;;;;11.80;4.30;;;;;;;26.68;37.58;98590.86;25051;1317;3055187;-56
2022/08/15 06:48:45;;;;;;;5.70;3.10;;;;;;;26.72;37.55;98592.85;25051;1317;3026678;-59
2022/08/15 06:51:15;;;;;;;9.30;3.50;;;;;;;26.78;37.42;98592.05;25000;1317;3026489;-57
2022/08/15 06:53:56;;;;;;;9.20;3.80;;;;;;;26.75;37.70;98599.36;25069;1317;3027388;-59
2022/08/15 06:56:31;;;;;;;9.50;3.90;;;;;;;26.79;37.37;98594.20;25068;1316;3052640;-58
2022/08/15 06:59:05;;;;;;;12.10;4.00;;;;;;;26.85;37.30;98594.27;24892;1316;3069748;-58
2022/08/15 07:01:52;;;;;;;10.60;3.70;;;;;;;26.86;37.26;98591.73;25067;1315;3052275;-57
2022/08/15 07:04:40;;;;;;;8.40;3.80;;;;;;;26.90;37.07;98587.02;25094;1316;3054759;-59
2022/08/15 07:07:28;;;;;;;12.90;4.50;;;;;;;26.94;36.78;98592.08;25008;1321;3055800;-59
2022/08/15 07:10:28;;;;;;;8.30;3.80;;;;;;;26.94;36.84;98594.94;25068;1314;3059571;-60
2022/08/15 07:13:04;;;;;;;13.00;3.90;;;;;;;27.01;37.02;98595.17;24979;1318;3053027;-63
2022/08/15 07:15:52;;;;;;;18.30;3.90;;;;;;;27.11;36.97;98600.32;25009;1317;3054164;-58
2022/08/15 07:18:28;;;;;;;9.90;3.60;;;;;;;27.23;37.11;98598.54;25006;1320;3050137;-56
2022/08/15 07:21:09;;;;;;;10.20;3.60;;;;;;;27.33;36.69;98599.48;24934;1320;3071292;-58
2022/08/15 07:24:05;;;;;;;6.40;3.70;;;;;;;27.39;36.64;98594.29;24951;1318;3051222;-59
2022/08/15 07:26:49;;;;;;;10.50;4.10;;;;;;;27.43;36.91;98594.20;24950;1317;3054649;-56
2022/08/15 07:29:30;;;;;;;8.80;4.00;;;;;;;27.45;36.76;98596.17;24944;1320;3055688;-58
2022/08/15 07:32:28;;;;;;;9.60;3.80;;;;;;;27.44;36.94;98600.88;25018;1317;3057113;-59
2022/08/15 07:35:11;;;;;;;7.90;4.10;;;;;;;27.50;36.88;98608.29;25026;1318;3050315;-59
2022/08/15 07:37:48;;;;;;;9.10;3.70;;;;;;;27.58;36.87;98606.91;24964;1317;3055890;-59
2022/08/15 07:40:36;;;;;;;8.30;3.70;;;;;;;27.67;36.75;98606.19;24982;1323;3053870;-57
2022/08/15 07:43:25;;;;;;;7.30;3.60;;;;;;;27.76;36.71;98602.23;24970;1318;3069331;-59
2022/08/15 07:46:07;;;;;;;10.40;4.50;;;;;;;27.79;36.85;98598.65;24962;1319;3049350;-58
2022/08/15 07:48:38;;;;;;;5.50;3.30;;;;;;;27.80;36.98;98604.86;24941;1318;3054933;-56
2022/08/15 07:51:14;;;;;;;6.40;4.30;;;;;;;27.83;37.17;98611.55;24929;1317;3052104;-57
2022/08/15 07:53:53;;;;;;;15.70;4.30;;;;;;;27.88;37.19;98615.73;24948;1317;3029469;-57
2022/08/15 07:56:23;;;;;;;8.60;3.70;;;;;;;27.95;37.13;98616.52;24948;1319;3050210;-58
2022/08/15 07:58:55;;;;;;;12.30;3.80;;;;;;;28.03;37.03;98613.25;24970;1317;3026500;-57
2022/08/15 08:01:29;;;;;;;9.70;3.90;;;;;;;28.06;36.92;98607.48;24915;1319;3026279;-57
2022/08/15 08:04:21;;;;;;;11.20;3.90;;;;;;;28.15;36.78;98608.95;24960;1317;3069784;-58
2022/08/15 08:07:28;;;;;;;8.80;3.30;;;;;;;28.29;36.64;98607.45;24976;1318;3052050;-56
2022/08/15 08:10:01;;;;;;;10.50;4.10;;;;;;;28.38;36.70;98609.27;24892;1318;3055531;-58
2022/08/15 08:12:30;;;;;;;;;;;;;;;28.39;36.62;98602.78;24880;1317;3055276;-57
2022/08/15 08:15:16;;;;;;;7.20;3.70;;;;;;;28.35;36.67;98604.34;25076;1316;3026308;-57
2022/08/15 08:18:32;;;;;;;8.90;3.90;;;;;;;28.39;36.48;98594.92;24961;1320;3049551;-58
2022/08/15 08:21:04;;;;;;;10.80;3.50;;;;;;;28.57;36.29;98597.82;24306;1317;4414917;-56
2022/08/15 08:23:42;;;;;;;7.60;3.50;;;;;;;28.70;36.25;98597.77;24978;1316;3057722;-55
2022/08/15 08:26:33;;;;;;;10.30;3.60;;;;;;;28.84;36.11;98590.23;24984;1318;3049855;-58
2022/08/15 08:29:16;;;;;;;6.20;3.40;;;;;;;28.98;35.97;98589.53;25011;1317;3055899;-58
2022/08/15 08:31:57;;;;;;;11.30;3.90;;;;;;;29.09;35.75;98590.45;24998;1318;3054646;-57
2022/08/15 08:34:41;;;;;;;5.90;3.60;;;;;;;29.17;35.67;98585.98;25046;1317;3071496;-57
2022/08/15 08:37:20;;;;;;;7.70;3.60;;;;;;;29.28;35.66;98584.83;25005;1318;3049958;-58
2022/08/15 08:43:32;;;;;;;11.30;4.20;;;;;;;29.57;36.04;98572.70;25057;1316;3055335;-57
2022/08/15 08:46:13;;;;;;;13.00;3.90;;;;;;;29.71;35.75;98576.81;25063;1318;3059250;-58
2022/08/15 08:48:51;;;;;;;11.50;4.20;;;;;;;29.77;35.48;98572.23;25031;1318;3050234;-56
2022/08/15 08:51:38;;;;;;;9.50;3.80;;;;;;;29.88;35.23;98567.42;24953;1318;3054463;-58
2022/08/15 08:54:15;;;;;;;15.10;4.00;;;;;;;30.00;35.03;98566.09;24993;1317;3055406;-59
2022/08/15 08:56:50;;;;;;;8.00;3.90;;;;;;;30.08;34.83;98573.48;24958;1317;3073193;-58
2022/08/15 08:59:26;;;;;;;9.00;4.10;;;;;;;30.14;34.55;98569.70;24936;1317;3049139;-57
2022/08/15 09:02:06;;;;;;;7.80;3.40;;;;;;;30.22;34.47;98569.80;24970;1318;3052567;-58
2022/08/15 09:04:41;;;;;;;6.00;3.20;;;;;;;30.39;34.32;98573.01;25042;1316;3053048;-57
2022/08/15 09:07:12;;;;;;;8.70;4.00;;;;;;;30.60;33.77;98571.27;25014;1317;3056199;-56
2022/08/15 09:09:42;;;;;;;6.20;3.70;;;;;;;30.76;33.57;98572.95;25028;1317;3026560;-56
2022/08/15 09:15:17;;;;;;;7.00;3.20;;;;;;;31.03;32.53;98567.73;25029;1317;3054290;-59
2022/08/15 09:17:49;;;;;;;6.20;3.50;;;;;;;31.16;32.30;98567.75;25086;1316;3069649;-55
2022/08/15 09:20:22;;;;;;;10.40;3.40;;;;;;;31.30;31.94;98568.55;25092;1317;3026620;-59
2022/08/15 09:22:51;;;;;;;7.50;3.00;;;;;;;31.39;31.63;98563.52;24977;1319;3026853;-59
2022/08/15 09:25:23;;;;;;;5.80;3.30;;;;;;;31.39;31.33;98560.74;25013;1317;3026839;-57
2022/08/15 09:27:56;;;;;;;8.20;3.50;;;;;;;31.38;31.14;98556.94;25078;1316;3026000;-56
2022/08/15 09:30:26;;;;;;;9.70;3.70;;;;;;;31.39;30.93;98554.77;25328;1316;3048798;-58
2022/08/15 09:33:01;;;;;;;7.20;3.10;;;;;;;31.43;30.49;98557.00;24955;1317;3026135;-57
2022/08/15 09:35:38;;;;;;;7.50;2.70;;;;;;;31.57;29.87;98550.88;24998;1318;3051784;-58
2022/08/15 09:38:37;;;;;;;11.40;3.40;;;;;;;31.70;28.79;98539.16;25115;1316;3069538;-57
2022/08/15 09:41:46;;;;;;;9.00;3.60;;;;;;;31.80;27.46;98536.34;25009;1317;3048965;-58
2022/08/15 09:44:23;;;;;;;6.80;2.90;;;;;;;31.97;27.02;98539.89;25082;1317;3052720;-59
2022/08/15 09:47:00;;;;;;;10.70;3.70;;;;;;;32.15;26.74;98541.82;24961;1317;3051239;-58
2022/08/15 09:49:35;;;;;;;7.80;3.30;;;;;;;32.37;26.96;98539.09;25092;1317;3056825;-59
2022/08/15 09:52:26;;;;;;;8.10;2.80;;;;;;;32.54;26.52;98537.83;25036;1317;3053484;-58
2022/08/15 09:54:59;;;;;;;6.30;3.40;;;;;;;32.75;26.55;98538.38;25017;1316;3057693;-57
2022/08/15 09:57:28;;;;;;;7.00;3.10;;;;;;;32.97;26.15;98533.35;25029;1318;3050263;-58
2022/08/15 09:59:59;;;;;;;8.80;3.60;;;;;;;33.17;26.57;98536.04;25115;1316;3028389;-62
2022/08/15 10:02:32;;;;;;;5.20;3.10;;;;;;;33.30;26.42;98537.80;24982;1316;3053472;-58
2022/08/15 10:05:01;;;;;;;8.00;2.80;;;;;;;33.50;26.20;98534.40;24993;1317;3029483;-58
2022/08/15 10:07:30;;;;;;;6.90;3.40;;;;;;;33.66;26.32;98535.95;25095;1317;3026475;-62
2022/08/15 10:09:59;;;;;;;10.00;3.30;;;;;;;33.71;26.16;98535.41;25057;1316;3057350;-60
2022/08/15 10:12:29;;;;;;;8.10;3.30;;;;;;;33.87;26.14;98532.27;25018;1316;3026794;-60
2022/08/15 10:15:06;;;;;;;10.30;3.40;;;;;;;34.05;25.60;98533.83;25000;1318;3028953;-62
2022/08/15 10:17:35;;;;;;;9.00;3.20;;;;;;;34.08;25.84;98536.27;25027;1316;3049567;-59
2022/08/15 10:20:14;;;;;;;6.50;3.50;;;;;;;34.00;25.59;98536.10;25078;1316;3027408;-61
2022/08/15 10:22:47;;;;;;;7.30;3.00;;;;;;;34.01;25.51;98538.95;24985;1317;3071620;-61
2022/08/15 10:25:29;;;;;;;8.90;3.20;;;;;;;34.04;25.41;98534.03;25043;1316;3048838;-60
2022/08/15 10:28:10;;;;;;;5.40;3.50;;;;;;;34.01;25.10;98531.36;25014;1317;3052890;-59
2022/08/15 10:30:46;;;;;;;8.00;4.00;;;;;;;34.10;25.39;98531.92;25095;1317;3052650;-61
2022/08/15 10:33:33;;;;;;;7.90;3.70;;;;;;;34.19;24.97;98536.89;25077;1317;3056963;-61
2022/08/15 10:36:05;;;;;;;8.70;3.70;;;;;;;34.37;24.93;98538.09;25081;1317;3049699;-60
2022/08/15 10:38:34;;;;;;;9.00;3.40;;;;;;;34.63;25.08;98538.94;25067;1317;3026725;-59
2022/08/15 10:41:39;;;;;;;7.10;3.80;;;;;;;34.78;24.94;98543.52;25030;1317;3026433;-59
2022/08/15 10:44:42;;;;;;;8.50;3.80;;;;;;;34.92;24.75;98540.09;24979;1321;3050116;-61
2022/08/15 10:47:25;;;;;;;7.10;3.50;;;;;;;35.17;25.09;98541.22;25103;1317;3055260;-60
2022/08/15 10:50:00;;;;;;;;;;;;;;;35.32;24.55;98536.65;25020;1317;3051314;-59
2022/08/15 10:53:13;;;;;;;8.20;4.90;;;;;;;35.40;24.59;98541.77;25103;1317;3070805;-58
2022/08/15 10:55:42;;;;;;;7.00;4.40;;;;;;;35.52;24.73;98540.13;25188;1317;3049435;-61
2022/08/15 10:58:30;;;;;;;10.40;4.80;;;;;;;35.57;24.85;98535.58;25027;1316;3027166;-60
2022/08/15 11:01:09;;;;;;;8.30;4.60;;;;;;;35.51;24.92;98533.92;25081;1317;3068647;-62
2022/08/15 11:03:46;;;;;;;8.40;3.90;;;;;;;35.55;24.74;98526.52;25109;1318;3049143;-60
2022/08/15 11:06:16;;;;;;;12.80;5.50;;;;;;;35.67;24.85;98526.84;25140;1317;3053394;-63
2022/08/15 11:08:48;;;;;;;11.20;4.40;;;;;;;35.69;25.06;98530.11;25202;1317;3027235;-65
2022/08/15 11:11:19;;;;;;;8.90;4.30;;;;;;;35.55;25.56;98525.54;25082;1316;3028133;-66
2022/08/15 11:13:51;;;;;;;10.10;4.60;;;;;;;35.47;25.78;98524.16;25102;1316;3029037;-63
2022/08/15 11:16:32;;;;;;;7.10;4.00;;;;;;;35.45;25.86;98519.41;25056;1317;3026714;-63
2022/08/15 11:19:16;;;;;;;10.60;4.90;;;;;;;35.49;25.70;98521.20;25123;1318;3052112;-63
2022/08/15 11:21:54;;;;;;;10.80;4.10;;;;;;;35.47;26.27;98520.44;25070;1317;3070868;-65
2022/08/15 11:24:54;;;;;;;6.70;4.00;;;;;;;35.65;26.27;98517.14;25035;1317;3049985;-61
2022/08/15 11:27:24;;;;;;;7.60;3.70;;;;;;;35.79;25.95;98511.04;25061;1317;3055342;-63
2022/08/15 11:29:55;;;;;;;8.20;4.30;;;;;;;36.02;25.85;98506.38;25032;1317;3026346;-61
2022/08/15 11:32:31;;;;;;;8.60;4.20;;;;;;;36.24;24.67;98504.58;25104;1317;3027014;-62
2022/08/15 11:35:18;;;;;;;8.10;3.50;;;;;;;36.52;23.80;98502.50;25022;1317;3052817;-68
2022/08/15 11:37:47;;;;;;;13.00;3.60;;;;;;;36.75;22.90;98493.95;25144;1316;3053773;-67
2022/08/15 11:40:25;;;;;;;9.10;3.10;;;;;;;36.73;21.97;98492.50;25055;1317;3026413;-66
2022/08/15 11:42:54;;;;;;;8.60;3.30;;;;;;;36.76;21.57;98490.19;25105;1317;3049828;-68
2022/08/15 11:45:26;;;;;;;8.40;4.20;;;;;;;36.62;21.06;98489.02;25135;1316;3026704;-62
2022/08/15 11:47:57;;;;;;;7.90;3.70;;;;;;;36.58;21.16;98488.33;25097;1317;3028319;-62
2022/08/15 11:50:31;;;;;;;7.70;3.80;;;;;;;36.48;21.84;98484.50;24995;1317;3029306;-65
2022/08/15 11:53:02;;;;;;;7.70;3.30;;;;;;;36.36;22.57;98485.64;25051;1316;3049363;-64
2022/08/15 11:55:32;;;;;;;6.30;3.60;;;;;;;36.26;22.78;98484.17;25051;1316;3026723;-67
2022/08/15 11:58:03;;;;;;;7.60;4.20;;;;;;;36.11;22.90;98479.33;25045;1317;3027028;-65
2022/08/15 12:00:40;;;;;;;12.10;3.90;;;;;;;36.01;23.50;98481.14;25184;1316;3048062;-64
2022/08/15 12:03:32;;;;;;;5.30;3.80;;;;;;;35.96;24.03;98473.27;24976;1317;3052269;-65